sensor_id;sensor_type;location;lat;lon;timestamp;P1;durP1;ratioP1;P2;durP2;ratioP2
80711;SDS011;70078;51.596;5.678;2023-07-30T00:01:29;5.53;;;3.30;;
80711;SDS011;70078;51.596;5.678;2023-07-30T00:03:54;10.25;;;4.10;;
80711;SDS011;70078;51.596;5.678;2023-07-30T00:06:20;10.95;;;3.85;;
80711;SDS011;70078;51.596;5.678;2023-07-30T00:08:45;13.20;;;3.58;;
80711;SDS011;70078;51.596;5.678;2023-07-30T00:11:10;8.88;;;4.20;;
80711;SDS011;70078;51.596;5.678;2023-07-30T00:13:36;8.15;;;3.78;;
80711;SDS011;70078;51.596;5.678;2023-07-30T00:16:01;8.95;;;3.97;;
80711;SDS011;70078;51.596;5.678;2023-07-30T00:18:27;9.20;;;3.92;;
80711;SDS011;70078;51.596;5.678;2023-07-30T00:20:52;8.45;;;3.60;;
80711;SDS011;70078;51.596;5.678;2023-07-30T00:23:17;8.52;;;3.80;;
80711;SDS011;70078;51.596;5.678;2023-07-30T00:25:43;8.10;;;3.80;;
80711;SDS011;70078;51.596;5.678;2023-07-30T00:28:08;4.93;;;3.22;;
80711;SDS011;70078;51.596;5.678;2023-07-30T00:30:34;8.18;;;2.75;;
80711;SDS011;70078;51.596;5.678;2023-07-30T00:32:59;13.60;;;3.25;;
80711;SDS011;70078;51.596;5.678;2023-07-30T00:35:24;10.27;;;4.03;;
80711;SDS011;70078;51.596;5.678;2023-07-30T00:37:50;8.52;;;3.60;;
80711;SDS011;70078;51.596;5.678;2023-07-30T00:40:15;8.57;;;3.60;;
80711;SDS011;70078;51.596;5.678;2023-07-30T00:42:42;8.27;;;3.45;;
80711;SDS011;70078;51.596;5.678;2023-07-30T00:45:07;6.47;;;3.03;;
80711;SDS011;70078;51.596;5.678;2023-07-30T00:47:34;8.63;;;3.20;;
80711;SDS011;70078;51.596;5.678;2023-07-30T00:49:59;7.63;;;3.45;;
80711;SDS011;70078;51.596;5.678;2023-07-30T00:52:26;6.85;;;3.08;;
80711;SDS011;70078;51.596;5.678;2023-07-30T00:54:51;7.03;;;3.13;;
80711;SDS011;70078;51.596;5.678;2023-07-30T00:57:18;11.13;;;3.65;;
80711;SDS011;70078;51.596;5.678;2023-07-30T00:59:45;9.00;;;3.33;;
80711;SDS011;70078;51.596;5.678;2023-07-30T01:02:12;7.85;;;3.45;;
80711;SDS011;70078;51.596;5.678;2023-07-30T01:04:37;8.80;;;3.70;;
80711;SDS011;70078;51.596;5.678;2023-07-30T01:07:04;8.10;;;3.88;;
80711;SDS011;70078;51.596;5.678;2023-07-30T01:09:31;7.07;;;3.25;;
80711;SDS011;70078;51.596;5.678;2023-07-30T01:11:56;7.72;;;3.38;;
80711;SDS011;70078;51.596;5.678;2023-07-30T01:14:23;10.18;;;3.45;;
80711;SDS011;70078;51.596;5.678;2023-07-30T01:16:51;8.30;;;3.70;;
80711;SDS011;70078;51.596;5.678;2023-07-30T01:19:17;10.35;;;3.55;;
80711;SDS011;70078;51.596;5.678;2023-07-30T01:21:42;6.95;;;3.33;;
80711;SDS011;70078;51.596;5.678;2023-07-30T01:24:07;9.00;;;3.40;;
80711;SDS011;70078;51.596;5.678;2023-07-30T01:26:40;7.53;;;3.50;;
80711;SDS011;70078;51.596;5.678;2023-07-30T01:29:11;5.65;;;3.35;;
80711;SDS011;70078;51.596;5.678;2023-07-30T01:31:47;8.48;;;4.07;;
80711;SDS011;70078;51.596;5.678;2023-07-30T01:34:20;10.40;;;4.13;;
80711;SDS011;70078;51.596;5.678;2023-07-30T01:36:46;10.13;;;4.90;;
80711;SDS011;70078;51.596;5.678;2023-07-30T01:39:14;12.63;;;3.92;;
80711;SDS011;70078;51.596;5.678;2023-07-30T01:41:40;9.32;;;3.50;;
80711;SDS011;70078;51.596;5.678;2023-07-30T01:44:05;10.75;;;3.95;;
80711;SDS011;70078;51.596;5.678;2023-07-30T01:46:31;8.85;;;3.67;;
80711;SDS011;70078;51.596;5.678;2023-07-30T01:48:56;9.88;;;3.30;;
80711;SDS011;70078;51.596;5.678;2023-07-30T01:51:22;10.55;;;3.78;;
80711;SDS011;70078;51.596;5.678;2023-07-30T01:53:47;6.63;;;3.40;;
80711;SDS011;70078;51.596;5.678;2023-07-30T01:56:12;8.38;;;3.65;;
80711;SDS011;70078;51.596;5.678;2023-07-30T01:58:38;5.80;;;2.38;;
80711;SDS011;70078;51.596;5.678;2023-07-30T02:01:03;10.57;;;4.10;;
80711;SDS011;70078;51.596;5.678;2023-07-30T02:03:28;7.47;;;4.55;;
80711;SDS011;70078;51.596;5.678;2023-07-30T02:05:54;5.60;;;4.00;;
80711;SDS011;70078;51.596;5.678;2023-07-30T02:08:19;10.77;;;4.65;;
80711;SDS011;70078;51.596;5.678;2023-07-30T02:10:53;7.18;;;3.30;;
80711;SDS011;70078;51.596;5.678;2023-07-30T02:13:19;7.47;;;3.80;;
80711;SDS011;70078;51.596;5.678;2023-07-30T02:15:45;9.70;;;4.25;;
80711;SDS011;70078;51.596;5.678;2023-07-30T02:18:10;9.18;;;2.83;;
80711;SDS011;70078;51.596;5.678;2023-07-30T02:20:35;9.55;;;4.07;;
80711;SDS011;70078;51.596;5.678;2023-07-30T02:23:01;8.40;;;3.45;;
80711;SDS011;70078;51.596;5.678;2023-07-30T02:25:26;10.90;;;3.88;;
80711;SDS011;70078;51.596;5.678;2023-07-30T02:27:51;8.63;;;3.50;;
80711;SDS011;70078;51.596;5.678;2023-07-30T02:30:17;9.60;;;3.88;;
80711;SDS011;70078;51.596;5.678;2023-07-30T02:32:42;8.18;;;3.58;;
80711;SDS011;70078;51.596;5.678;2023-07-30T02:35:07;8.38;;;3.47;;
80711;SDS011;70078;51.596;5.678;2023-07-30T02:37:33;9.23;;;3.95;;
80711;SDS011;70078;51.596;5.678;2023-07-30T02:39:58;8.18;;;2.10;;
80711;SDS011;70078;51.596;5.678;2023-07-30T02:42:24;7.18;;;3.53;;
80711;SDS011;70078;51.596;5.678;2023-07-30T02:44:49;9.30;;;3.50;;
80711;SDS011;70078;51.596;5.678;2023-07-30T02:47:15;10.75;;;3.78;;
80711;SDS011;70078;51.596;5.678;2023-07-30T02:49:40;10.75;;;4.10;;
80711;SDS011;70078;51.596;5.678;2023-07-30T02:52:06;8.02;;;3.70;;
80711;SDS011;70078;51.596;5.678;2023-07-30T02:54:31;10.30;;;3.88;;
80711;SDS011;70078;51.596;5.678;2023-07-30T02:56:57;13.82;;;4.50;;
80711;SDS011;70078;51.596;5.678;2023-07-30T02:59:22;14.13;;;4.30;;
80711;SDS011;70078;51.596;5.678;2023-07-30T03:01:47;12.93;;;5.28;;
80711;SDS011;70078;51.596;5.678;2023-07-30T03:04:13;10.52;;;6.40;;
80711;SDS011;70078;51.596;5.678;2023-07-30T03:06:38;11.05;;;5.40;;
80711;SDS011;70078;51.596;5.678;2023-07-30T03:09:03;9.77;;;5.18;;
80711;SDS011;70078;51.596;5.678;2023-07-30T03:11:29;10.98;;;4.90;;
80711;SDS011;70078;51.596;5.678;2023-07-30T03:13:54;15.70;;;5.25;;
80711;SDS011;70078;51.596;5.678;2023-07-30T03:16:19;15.00;;;5.60;;
80711;SDS011;70078;51.596;5.678;2023-07-30T03:18:45;13.48;;;6.05;;
80711;SDS011;70078;51.596;5.678;2023-07-30T03:21:10;12.65;;;6.25;;
80711;SDS011;70078;51.596;5.678;2023-07-30T03:23:35;12.73;;;6.15;;
80711;SDS011;70078;51.596;5.678;2023-07-30T03:26:01;16.45;;;6.45;;
80711;SDS011;70078;51.596;5.678;2023-07-30T03:28:26;14.27;;;6.65;;
80711;SDS011;70078;51.596;5.678;2023-07-30T03:30:51;12.60;;;6.47;;
80711;SDS011;70078;51.596;5.678;2023-07-30T03:33:17;16.52;;;7.10;;
80711;SDS011;70078;51.596;5.678;2023-07-30T03:35:42;20.63;;;6.20;;
80711;SDS011;70078;51.596;5.678;2023-07-30T03:38:07;12.55;;;5.90;;
80711;SDS011;70078;51.596;5.678;2023-07-30T03:40:33;15.80;;;6.20;;
80711;SDS011;70078;51.596;5.678;2023-07-30T03:42:58;18.08;;;5.82;;
80711;SDS011;70078;51.596;5.678;2023-07-30T03:45:23;12.57;;;6.35;;
80711;SDS011;70078;51.596;5.678;2023-07-30T03:47:49;17.30;;;6.72;;
80711;SDS011;70078;51.596;5.678;2023-07-30T03:50:14;15.43;;;7.35;;
80711;SDS011;70078;51.596;5.678;2023-07-30T03:52:40;16.27;;;6.55;;
80711;SDS011;70078;51.596;5.678;2023-07-30T03:55:05;15.68;;;6.47;;
80711;SDS011;70078;51.596;5.678;2023-07-30T03:57:31;18.30;;;6.05;;
80711;SDS011;70078;51.596;5.678;2023-07-30T03:59:56;11.68;;;6.03;;
80711;SDS011;70078;51.596;5.678;2023-07-30T04:02:21;15.30;;;6.25;;
80711;SDS011;70078;51.596;5.678;2023-07-30T04:04:47;14.27;;;6.53;;
80711;SDS011;70078;51.596;5.678;2023-07-30T04:07:14;18.52;;;6.15;;
80711;SDS011;70078;51.596;5.678;2023-07-30T04:09:40;14.80;;;6.55;;
80711;SDS011;70078;51.596;5.678;2023-07-30T04:12:05;16.25;;;6.93;;
80711;SDS011;70078;51.596;5.678;2023-07-30T04:14:31;17.95;;;6.78;;
80711;SDS011;70078;51.596;5.678;2023-07-30T04:16:56;15.18;;;6.22;;
80711;SDS011;70078;51.596;5.678;2023-07-30T04:19:21;15.38;;;6.95;;
80711;SDS011;70078;51.596;5.678;2023-07-30T04:21:47;14.40;;;6.05;;
80711;SDS011;70078;51.596;5.678;2023-07-30T04:24:13;15.30;;;6.55;;
80711;SDS011;70078;51.596;5.678;2023-07-30T04:26:39;12.90;;;6.47;;
80711;SDS011;70078;51.596;5.678;2023-07-30T04:29:04;15.85;;;6.32;;
80711;SDS011;70078;51.596;5.678;2023-07-30T04:31:29;13.57;;;7.40;;
80711;SDS011;70078;51.596;5.678;2023-07-30T04:33:57;16.38;;;6.68;;
80711;SDS011;70078;51.596;5.678;2023-07-30T04:36:22;14.52;;;5.55;;
80711;SDS011;70078;51.596;5.678;2023-07-30T04:38:48;14.77;;;6.38;;
80711;SDS011;70078;51.596;5.678;2023-07-30T04:41:13;14.18;;;6.13;;
80711;SDS011;70078;51.596;5.678;2023-07-30T04:43:39;18.25;;;6.25;;
80711;SDS011;70078;51.596;5.678;2023-07-30T04:46:04;10.88;;;5.50;;
80711;SDS011;70078;51.596;5.678;2023-07-30T04:48:29;16.25;;;6.78;;
80711;SDS011;70078;51.596;5.678;2023-07-30T04:50:55;16.08;;;6.20;;
80711;SDS011;70078;51.596;5.678;2023-07-30T04:53:20;14.75;;;6.15;;
80711;SDS011;70078;51.596;5.678;2023-07-30T04:55:46;12.02;;;6.60;;
80711;SDS011;70078;51.596;5.678;2023-07-30T04:58:11;13.40;;;6.35;;
80711;SDS011;70078;51.596;5.678;2023-07-30T05:00:36;15.65;;;6.13;;
80711;SDS011;70078;51.596;5.678;2023-07-30T05:03:02;13.10;;;6.43;;
80711;SDS011;70078;51.596;5.678;2023-07-30T05:05:27;15.23;;;6.68;;
80711;SDS011;70078;51.596;5.678;2023-07-30T05:07:53;15.15;;;6.70;;
80711;SDS011;70078;51.596;5.678;2023-07-30T05:10:18;15.85;;;6.50;;
80711;SDS011;70078;51.596;5.678;2023-07-30T05:12:44;18.60;;;6.57;;
80711;SDS011;70078;51.596;5.678;2023-07-30T05:15:09;12.45;;;6.38;;
80711;SDS011;70078;51.596;5.678;2023-07-30T05:17:34;13.60;;;6.80;;
80711;SDS011;70078;51.596;5.678;2023-07-30T05:20:00;17.27;;;7.05;;
80711;SDS011;70078;51.596;5.678;2023-07-30T05:22:25;19.55;;;7.57;;
80711;SDS011;70078;51.596;5.678;2023-07-30T05:24:51;20.27;;;7.40;;
80711;SDS011;70078;51.596;5.678;2023-07-30T05:27:16;15.73;;;6.43;;
80711;SDS011;70078;51.596;5.678;2023-07-30T05:29:41;16.30;;;5.28;;
80711;SDS011;70078;51.596;5.678;2023-07-30T05:32:07;13.55;;;7.95;;
80711;SDS011;70078;51.596;5.678;2023-07-30T05:34:32;17.13;;;6.45;;
80711;SDS011;70078;51.596;5.678;2023-07-30T05:36:58;17.58;;;6.60;;
80711;SDS011;70078;51.596;5.678;2023-07-30T05:39:23;18.52;;;6.95;;
80711;SDS011;70078;51.596;5.678;2023-07-30T05:41:48;20.88;;;7.07;;
80711;SDS011;70078;51.596;5.678;2023-07-30T05:44:14;18.25;;;8.10;;
80711;SDS011;70078;51.596;5.678;2023-07-30T05:46:39;15.48;;;7.63;;
80711;SDS011;70078;51.596;5.678;2023-07-30T05:49:04;17.77;;;6.88;;
80711;SDS011;70078;51.596;5.678;2023-07-30T05:51:30;13.65;;;7.18;;
80711;SDS011;70078;51.596;5.678;2023-07-30T05:53:55;21.50;;;8.73;;
80711;SDS011;70078;51.596;5.678;2023-07-30T05:56:20;20.63;;;8.15;;
80711;SDS011;70078;51.596;5.678;2023-07-30T05:58:46;12.98;;;6.75;;
80711;SDS011;70078;51.596;5.678;2023-07-30T06:01:11;15.98;;;6.40;;
80711;SDS011;70078;51.596;5.678;2023-07-30T06:03:37;16.10;;;7.60;;
80711;SDS011;70078;51.596;5.678;2023-07-30T06:06:02;16.42;;;7.38;;
80711;SDS011;70078;51.596;5.678;2023-07-30T06:08:28;17.95;;;7.28;;
80711;SDS011;70078;51.596;5.678;2023-07-30T06:10:54;15.20;;;7.80;;
80711;SDS011;70078;51.596;5.678;2023-07-30T06:13:20;19.58;;;7.70;;
80711;SDS011;70078;51.596;5.678;2023-07-30T06:15:45;17.40;;;8.02;;
80711;SDS011;70078;51.596;5.678;2023-07-30T06:18:11;23.50;;;8.75;;
80711;SDS011;70078;51.596;5.678;2023-07-30T06:20:38;15.32;;;7.72;;
80711;SDS011;70078;51.596;5.678;2023-07-30T06:23:03;26.13;;;8.43;;
80711;SDS011;70078;51.596;5.678;2023-07-30T06:25:29;20.00;;;8.68;;
80711;SDS011;70078;51.596;5.678;2023-07-30T06:27:55;18.48;;;8.38;;
80711;SDS011;70078;51.596;5.678;2023-07-30T06:30:23;19.48;;;8.23;;
80711;SDS011;70078;51.596;5.678;2023-07-30T06:32:48;18.67;;;7.97;;
80711;SDS011;70078;51.596;5.678;2023-07-30T06:35:14;19.05;;;9.43;;
80711;SDS011;70078;51.596;5.678;2023-07-30T06:37:39;18.33;;;9.20;;
80711;SDS011;70078;51.596;5.678;2023-07-30T06:40:05;16.35;;;9.25;;
80711;SDS011;70078;51.596;5.678;2023-07-30T06:42:31;18.92;;;7.82;;
80711;SDS011;70078;51.596;5.678;2023-07-30T06:44:56;17.45;;;8.05;;
80711;SDS011;70078;51.596;5.678;2023-07-30T06:47:22;16.75;;;8.68;;
80711;SDS011;70078;51.596;5.678;2023-07-30T06:49:47;16.67;;;8.20;;
80711;SDS011;70078;51.596;5.678;2023-07-30T06:52:13;18.73;;;8.13;;
80711;SDS011;70078;51.596;5.678;2023-07-30T06:54:38;21.40;;;8.10;;
80711;SDS011;70078;51.596;5.678;2023-07-30T06:57:03;19.75;;;7.22;;
80711;SDS011;70078;51.596;5.678;2023-07-30T06:59:29;15.05;;;7.22;;
80711;SDS011;70078;51.596;5.678;2023-07-30T07:01:54;18.75;;;7.70;;
80711;SDS011;70078;51.596;5.678;2023-07-30T07:04:20;16.50;;;7.53;;
80711;SDS011;70078;51.596;5.678;2023-07-30T07:06:46;18.60;;;9.07;;
80711;SDS011;70078;51.596;5.678;2023-07-30T07:09:11;16.88;;;6.88;;
80711;SDS011;70078;51.596;5.678;2023-07-30T07:11:37;13.38;;;6.88;;
80711;SDS011;70078;51.596;5.678;2023-07-30T07:14:02;17.33;;;7.28;;
80711;SDS011;70078;51.596;5.678;2023-07-30T07:16:28;11.32;;;5.20;;
80711;SDS011;70078;51.596;5.678;2023-07-30T07:18:53;15.68;;;5.28;;
80711;SDS011;70078;51.596;5.678;2023-07-30T07:21:18;16.27;;;5.28;;
80711;SDS011;70078;51.596;5.678;2023-07-30T07:23:45;13.73;;;6.03;;
80711;SDS011;70078;51.596;5.678;2023-07-30T07:26:10;15.00;;;5.57;;
80711;SDS011;70078;51.596;5.678;2023-07-30T07:28:36;10.68;;;5.40;;
80711;SDS011;70078;51.596;5.678;2023-07-30T07:31:01;16.58;;;6.25;;
80711;SDS011;70078;51.596;5.678;2023-07-30T07:33:27;13.40;;;6.13;;
80711;SDS011;70078;51.596;5.678;2023-07-30T07:36:01;13.23;;;5.50;;
80711;SDS011;70078;51.596;5.678;2023-07-30T07:38:28;13.68;;;4.78;;
80711;SDS011;70078;51.596;5.678;2023-07-30T07:40:53;15.40;;;5.00;;
80711;SDS011;70078;51.596;5.678;2023-07-30T07:43:19;15.80;;;6.30;;
80711;SDS011;70078;51.596;5.678;2023-07-30T07:45:45;14.68;;;5.90;;
80711;SDS011;70078;51.596;5.678;2023-07-30T07:48:10;13.80;;;5.72;;
80711;SDS011;70078;51.596;5.678;2023-07-30T07:50:35;14.68;;;5.78;;
80711;SDS011;70078;51.596;5.678;2023-07-30T07:53:01;18.48;;;5.68;;
80711;SDS011;70078;51.596;5.678;2023-07-30T07:55:26;13.70;;;4.63;;
80711;SDS011;70078;51.596;5.678;2023-07-30T07:57:51;17.88;;;5.45;;
80711;SDS011;70078;51.596;5.678;2023-07-30T08:00:17;18.05;;;4.60;;
80711;SDS011;70078;51.596;5.678;2023-07-30T08:02:43;16.52;;;4.68;;
80711;SDS011;70078;51.596;5.678;2023-07-30T08:05:08;14.75;;;5.80;;
80711;SDS011;70078;51.596;5.678;2023-07-30T08:07:34;12.40;;;4.82;;
80711;SDS011;70078;51.596;5.678;2023-07-30T08:09:59;14.52;;;5.50;;
80711;SDS011;70078;51.596;5.678;2023-07-30T08:12:24;16.10;;;5.45;;
80711;SDS011;70078;51.596;5.678;2023-07-30T08:14:50;11.63;;;4.53;;
80711;SDS011;70078;51.596;5.678;2023-07-30T08:17:15;16.10;;;4.45;;
80711;SDS011;70078;51.596;5.678;2023-07-30T08:19:41;16.08;;;5.68;;
80711;SDS011;70078;51.596;5.678;2023-07-30T08:22:06;15.48;;;5.00;;
80711;SDS011;70078;51.596;5.678;2023-07-30T08:24:31;15.52;;;4.90;;
80711;SDS011;70078;51.596;5.678;2023-07-30T08:26:57;11.02;;;4.18;;
80711;SDS011;70078;51.596;5.678;2023-07-30T08:29:22;17.08;;;5.80;;
80711;SDS011;70078;51.596;5.678;2023-07-30T08:31:48;13.90;;;4.82;;
80711;SDS011;70078;51.596;5.678;2023-07-30T08:34:13;15.02;;;4.68;;
80711;SDS011;70078;51.596;5.678;2023-07-30T08:36:38;12.98;;;4.90;;
80711;SDS011;70078;51.596;5.678;2023-07-30T08:39:04;13.10;;;4.95;;
80711;SDS011;70078;51.596;5.678;2023-07-30T08:41:29;14.43;;;4.75;;
80711;SDS011;70078;51.596;5.678;2023-07-30T08:43:54;12.98;;;4.47;;
80711;SDS011;70078;51.596;5.678;2023-07-30T08:46:20;10.65;;;4.15;;
80711;SDS011;70078;51.596;5.678;2023-07-30T08:48:45;13.63;;;4.60;;
80711;SDS011;70078;51.596;5.678;2023-07-30T08:51:11;9.23;;;4.28;;
80711;SDS011;70078;51.596;5.678;2023-07-30T08:53:37;17.33;;;4.68;;
80711;SDS011;70078;51.596;5.678;2023-07-30T08:56:04;9.95;;;4.00;;
80711;SDS011;70078;51.596;5.678;2023-07-30T08:58:31;11.15;;;4.50;;
80711;SDS011;70078;51.596;5.678;2023-07-30T09:00:58;9.50;;;4.97;;
80711;SDS011;70078;51.596;5.678;2023-07-30T09:03:24;13.00;;;4.70;;
80711;SDS011;70078;51.596;5.678;2023-07-30T09:05:52;12.50;;;5.22;;
80711;SDS011;70078;51.596;5.678;2023-07-30T09:08:17;13.32;;;4.45;;
80711;SDS011;70078;51.596;5.678;2023-07-30T09:10:43;13.82;;;5.38;;
80711;SDS011;70078;51.596;5.678;2023-07-30T09:13:08;16.48;;;5.20;;
80711;SDS011;70078;51.596;5.678;2023-07-30T09:15:37;10.95;;;4.25;;
80711;SDS011;70078;51.596;5.678;2023-07-30T09:18:06;13.82;;;5.15;;
80711;SDS011;70078;51.596;5.678;2023-07-30T09:20:36;15.65;;;5.30;;
80711;SDS011;70078;51.596;5.678;2023-07-30T09:23:03;11.70;;;4.63;;
80711;SDS011;70078;51.596;5.678;2023-07-30T09:25:29;11.15;;;4.35;;
80711;SDS011;70078;51.596;5.678;2023-07-30T09:27:55;13.32;;;5.00;;
80711;SDS011;70078;51.596;5.678;2023-07-30T09:30:25;9.00;;;4.00;;
80711;SDS011;70078;51.596;5.678;2023-07-30T09:32:52;10.40;;;4.82;;
80711;SDS011;70078;51.596;5.678;2023-07-30T09:35:19;12.18;;;4.38;;
80711;SDS011;70078;51.596;5.678;2023-07-30T09:37:45;10.32;;;4.05;;
80711;SDS011;70078;51.596;5.678;2023-07-30T09:40:11;11.57;;;3.95;;
80711;SDS011;70078;51.596;5.678;2023-07-30T09:42:41;11.15;;;4.65;;
80711;SDS011;70078;51.596;5.678;2023-07-30T09:48:01;11.55;;;5.00;;
80711;SDS011;70078;51.596;5.678;2023-07-30T09:50:28;10.85;;;4.65;;
80711;SDS011;70078;51.596;5.678;2023-07-30T09:52:54;7.55;;;3.58;;
80711;SDS011;70078;51.596;5.678;2023-07-30T09:55:19;13.45;;;3.55;;
80711;SDS011;70078;51.596;5.678;2023-07-30T09:57:45;9.43;;;4.38;;
80711;SDS011;70078;51.596;5.678;2023-07-30T10:00:10;8.23;;;4.13;;
80711;SDS011;70078;51.596;5.678;2023-07-30T10:02:40;14.50;;;4.68;;
80711;SDS011;70078;51.596;5.678;2023-07-30T10:05:10;8.05;;;4.10;;
80711;SDS011;70078;51.596;5.678;2023-07-30T10:07:44;9.45;;;4.03;;
80711;SDS011;70078;51.596;5.678;2023-07-30T10:10:15;9.10;;;3.55;;
80711;SDS011;70078;51.596;5.678;2023-07-30T10:12:40;7.65;;;2.97;;
80711;SDS011;70078;51.596;5.678;2023-07-30T10:15:08;8.32;;;3.38;;
80711;SDS011;70078;51.596;5.678;2023-07-30T10:17:34;7.80;;;3.65;;
80711;SDS011;70078;51.596;5.678;2023-07-30T10:22:52;11.77;;;3.72;;
80711;SDS011;70078;51.596;5.678;2023-07-30T10:25:20;12.38;;;4.60;;
80711;SDS011;70078;51.596;5.678;2023-07-30T10:27:55;11.05;;;4.13;;
80711;SDS011;70078;51.596;5.678;2023-07-30T10:30:21;10.18;;;3.50;;
80711;SDS011;70078;51.596;5.678;2023-07-30T10:36:04;8.85;;;3.22;;
80711;SDS011;70078;51.596;5.678;2023-07-30T10:38:12;7.50;;;3.58;;
80711;SDS011;70078;51.596;5.678;2023-07-30T10:43:28;5.50;;;3.28;;
80711;SDS011;70078;51.596;5.678;2023-07-30T10:45:59;8.75;;;3.88;;
80711;SDS011;70078;51.596;5.678;2023-07-30T10:48:35;7.07;;;2.50;;
80711;SDS011;70078;51.596;5.678;2023-07-30T10:51:03;7.88;;;3.63;;
80711;SDS011;70078;51.596;5.678;2023-07-30T10:53:30;7.78;;;3.53;;
80711;SDS011;70078;51.596;5.678;2023-07-30T10:56:00;8.50;;;4.03;;
80711;SDS011;70078;51.596;5.678;2023-07-30T10:58:28;5.32;;;3.30;;
80711;SDS011;70078;51.596;5.678;2023-07-30T11:00:55;7.07;;;3.60;;
80711;SDS011;70078;51.596;5.678;2023-07-30T11:03:21;6.78;;;3.38;;
80711;SDS011;70078;51.596;5.678;2023-07-30T11:05:49;7.20;;;3.75;;
80711;SDS011;70078;51.596;5.678;2023-07-30T11:08:15;8.48;;;3.83;;
80711;SDS011;70078;51.596;5.678;2023-07-30T11:10:46;5.97;;;3.40;;
80711;SDS011;70078;51.596;5.678;2023-07-30T11:13:12;5.45;;;3.83;;
80711;SDS011;70078;51.596;5.678;2023-07-30T11:15:44;6.32;;;4.57;;
80711;SDS011;70078;51.596;5.678;2023-07-30T11:18:10;11.15;;;4.32;;
80711;SDS011;70078;51.596;5.678;2023-07-30T11:20:37;10.73;;;4.05;;
80711;SDS011;70078;51.596;5.678;2023-07-30T11:23:16;7.50;;;3.90;;
80711;SDS011;70078;51.596;5.678;2023-07-30T11:25:51;7.65;;;3.63;;
80711;SDS011;70078;51.596;5.678;2023-07-30T11:28:30;5.57;;;3.30;;
80711;SDS011;70078;51.596;5.678;2023-07-30T11:31:00;7.85;;;3.90;;
80711;SDS011;70078;51.596;5.678;2023-07-30T11:35:57;9.10;;;4.10;;
80711;SDS011;70078;51.596;5.678;2023-07-30T11:38:25;7.70;;;3.97;;
80711;SDS011;70078;51.596;5.678;2023-07-30T11:40:52;6.72;;;3.20;;
80711;SDS011;70078;51.596;5.678;2023-07-30T11:43:18;5.60;;;3.22;;
80711;SDS011;70078;51.596;5.678;2023-07-30T11:45:45;6.80;;;3.38;;
80711;SDS011;70078;51.596;5.678;2023-07-30T11:48:11;9.98;;;3.28;;
80711;SDS011;70078;51.596;5.678;2023-07-30T11:50:46;8.10;;;3.35;;
80711;SDS011;70078;51.596;5.678;2023-07-30T11:53:13;7.13;;;2.83;;
80711;SDS011;70078;51.596;5.678;2023-07-30T11:55:39;7.47;;;3.83;;
80711;SDS011;70078;51.596;5.678;2023-07-30T11:58:06;6.68;;;3.33;;
80711;SDS011;70078;51.596;5.678;2023-07-30T12:00:32;5.93;;;2.65;;
80711;SDS011;70078;51.596;5.678;2023-07-30T12:03:02;6.15;;;2.95;;
80711;SDS011;70078;51.596;5.678;2023-07-30T12:05:31;6.53;;;2.70;;
80711;SDS011;70078;51.596;5.678;2023-07-30T12:07:59;4.70;;;2.38;;
80711;SDS011;70078;51.596;5.678;2023-07-30T12:10:28;4.88;;;1.65;;
80711;SDS011;70078;51.596;5.678;2023-07-30T12:12:53;5.45;;;2.83;;
80711;SDS011;70078;51.596;5.678;2023-07-30T12:15:19;7.88;;;2.63;;
80711;SDS011;70078;51.596;5.678;2023-07-30T12:17:44;7.28;;;1.70;;
80711;SDS011;70078;51.596;5.678;2023-07-30T12:20:11;5.40;;;2.60;;
80711;SDS011;70078;51.596;5.678;2023-07-30T12:22:36;6.32;;;2.85;;
80711;SDS011;70078;51.596;5.678;2023-07-30T12:25:03;7.70;;;3.33;;
80711;SDS011;70078;51.596;5.678;2023-07-30T12:27:30;7.40;;;2.90;;
80711;SDS011;70078;51.596;5.678;2023-07-30T12:29:55;6.07;;;2.67;;
80711;SDS011;70078;51.596;5.678;2023-07-30T12:32:21;5.72;;;2.53;;
80711;SDS011;70078;51.596;5.678;2023-07-30T12:34:46;6.07;;;2.78;;
80711;SDS011;70078;51.596;5.678;2023-07-30T12:37:12;6.55;;;2.55;;
80711;SDS011;70078;51.596;5.678;2023-07-30T12:39:37;6.70;;;2.58;;
80711;SDS011;70078;51.596;5.678;2023-07-30T12:42:03;7.18;;;2.72;;
80711;SDS011;70078;51.596;5.678;2023-07-30T12:44:28;7.13;;;2.92;;
80711;SDS011;70078;51.596;5.678;2023-07-30T12:46:53;8.60;;;2.50;;
80711;SDS011;70078;51.596;5.678;2023-07-30T12:49:19;4.03;;;2.28;;
80711;SDS011;70078;51.596;5.678;2023-07-30T12:51:44;5.22;;;3.33;;
80711;SDS011;70078;51.596;5.678;2023-07-30T12:54:10;6.53;;;2.67;;
80711;SDS011;70078;51.596;5.678;2023-07-30T12:56:35;6.55;;;2.85;;
80711;SDS011;70078;51.596;5.678;2023-07-30T12:59:01;4.15;;;2.90;;
80711;SDS011;70078;51.596;5.678;2023-07-30T13:01:26;4.43;;;1.23;;
80711;SDS011;70078;51.596;5.678;2023-07-30T13:03:51;4.95;;;2.15;;
80711;SDS011;70078;51.596;5.678;2023-07-30T13:06:20;3.95;;;2.42;;
80711;SDS011;70078;51.596;5.678;2023-07-30T13:08:46;4.47;;;2.92;;
80711;SDS011;70078;51.596;5.678;2023-07-30T13:11:12;3.20;;;2.28;;
80711;SDS011;70078;51.596;5.678;2023-07-30T13:13:37;4.88;;;1.90;;
80711;SDS011;70078;51.596;5.678;2023-07-30T13:16:03;7.43;;;2.42;;
80711;SDS011;70078;51.596;5.678;2023-07-30T13:18:29;5.15;;;2.60;;
80711;SDS011;70078;51.596;5.678;2023-07-30T13:20:54;6.82;;;2.60;;
80711;SDS011;70078;51.596;5.678;2023-07-30T13:23:20;8.13;;;2.50;;
80711;SDS011;70078;51.596;5.678;2023-07-30T13:25:45;6.93;;;2.47;;
80711;SDS011;70078;51.596;5.678;2023-07-30T13:28:11;5.47;;;3.10;;
80711;SDS011;70078;51.596;5.678;2023-07-30T13:30:37;5.38;;;2.63;;
80711;SDS011;70078;51.596;5.678;2023-07-30T13:33:02;5.05;;;2.67;;
80711;SDS011;70078;51.596;5.678;2023-07-30T13:35:27;5.60;;;2.58;;
80711;SDS011;70078;51.596;5.678;2023-07-30T13:37:53;2.90;;;2.13;;
80711;SDS011;70078;51.596;5.678;2023-07-30T13:40:18;5.22;;;2.95;;
80711;SDS011;70078;51.596;5.678;2023-07-30T13:42:43;3.85;;;2.47;;
80711;SDS011;70078;51.596;5.678;2023-07-30T13:45:09;5.38;;;2.80;;
80711;SDS011;70078;51.596;5.678;2023-07-30T13:47:34;3.80;;;2.15;;
80711;SDS011;70078;51.596;5.678;2023-07-30T13:50:00;5.40;;;2.20;;
80711;SDS011;70078;51.596;5.678;2023-07-30T13:52:25;3.40;;;2.35;;
80711;SDS011;70078;51.596;5.678;2023-07-30T13:54:51;4.47;;;2.78;;
80711;SDS011;70078;51.596;5.678;2023-07-30T13:57:22;5.00;;;2.92;;
80711;SDS011;70078;51.596;5.678;2023-07-30T13:59:51;4.63;;;2.20;;
80711;SDS011;70078;51.596;5.678;2023-07-30T14:02:17;4.80;;;2.00;;
80711;SDS011;70078;51.596;5.678;2023-07-30T14:04:43;5.22;;;2.28;;
80711;SDS011;70078;51.596;5.678;2023-07-30T14:07:08;4.88;;;2.90;;
80711;SDS011;70078;51.596;5.678;2023-07-30T14:09:34;4.68;;;2.55;;
80711;SDS011;70078;51.596;5.678;2023-07-30T14:12:01;5.03;;;2.17;;
80711;SDS011;70078;51.596;5.678;2023-07-30T14:14:27;6.15;;;2.13;;
80711;SDS011;70078;51.596;5.678;2023-07-30T14:16:53;5.68;;;3.00;;
80711;SDS011;70078;51.596;5.678;2023-07-30T14:19:19;5.88;;;2.58;;
80711;SDS011;70078;51.596;5.678;2023-07-30T14:21:45;5.03;;;2.60;;
80711;SDS011;70078;51.596;5.678;2023-07-30T14:24:10;5.85;;;3.17;;
80711;SDS011;70078;51.596;5.678;2023-07-30T14:26:36;5.50;;;2.30;;
80711;SDS011;70078;51.596;5.678;2023-07-30T14:29:01;4.13;;;2.50;;
80711;SDS011;70078;51.596;5.678;2023-07-30T14:31:27;3.95;;;2.88;;
80711;SDS011;70078;51.596;5.678;2023-07-30T14:33:52;10.20;;;2.60;;
80711;SDS011;70078;51.596;5.678;2023-07-30T14:36:18;4.95;;;2.22;;
80711;SDS011;70078;51.596;5.678;2023-07-30T14:38:43;4.35;;;2.78;;
80711;SDS011;70078;51.596;5.678;2023-07-30T14:41:08;6.50;;;2.78;;
80711;SDS011;70078;51.596;5.678;2023-07-30T14:43:34;5.05;;;2.47;;
80711;SDS011;70078;51.596;5.678;2023-07-30T14:46:00;5.28;;;3.10;;
80711;SDS011;70078;51.596;5.678;2023-07-30T14:48:25;6.75;;;2.50;;